Time;durP1;ratioP1;P1;durP2;ratioP2;P2;SDS_P1;SDS_P2;PMS_P1;PMS_P2;Temp;Humidity;BMP_temperature;BMP_pressure;BME280_temperature;BME280_humidity;BME280_pressure;Samples;Min_cycle;Max_cycle;Signal;HPM_P1;HPM_P2
2022/09/19 00:01:35;;;;;;;4.55;3.58;;;18.90;79.30;;;;;;6183574;23;20001;-76
2022/09/19 00:04:31;;;;;;;3.63;3.10;;;18.90;79.30;;;;;;6182518;23;19997;-75
2022/09/19 00:06:57;;;;;;;3.47;2.78;;;19.00;79.20;;;;;;6182687;23;20475;-76
2022/09/19 00:09:27;;;;;;;5.18;3.17;;;19.00;79.10;;;;;;6183198;23;20001;-75
2022/09/19 00:11:55;;;;;;;4.38;3.58;;;18.90;79.30;;;;;;6183932;23;20080;-76
2022/09/19 00:14:25;;;;;;;5.25;3.88;;;18.90;79.20;;;;;;6184400;23;20072;-75
2022/09/19 00:17:02;;;;;;;5.85;4.38;;;18.90;79.20;;;;;;6183770;23;20036;-76
2022/09/19 00:19:29;;;;;;;5.25;4.22;;;18.90;79.20;;;;;;6184939;23;20005;-83
2022/09/19 00:21:58;;;;;;;5.28;3.80;;;18.90;79.10;;;;;;6184841;23;20005;-82
2022/09/19 00:27:22;;;;;;;5.72;4.05;;;18.90;79.30;;;;;;6184678;23;20016;-82
2022/09/19 00:29:48;;;;;;;5.05;4.40;;;18.90;79.40;;;;;;6184884;23;20013;-82
2022/09/19 00:32:15;;;;;;;4.05;3.58;;;18.70;79.50;;;;;;6182553;23;20005;-83
2022/09/19 00:34:43;;;;;;;4.68;3.40;;;18.70;79.60;;;;;;6184580;23;20012;-82
2022/09/19 00:37:11;;;;;;;3.80;3.33;;;18.70;79.70;;;;;;6184315;23;20001;-82
2022/09/19 00:39:37;;;;;;;4.25;3.35;;;18.70;79.80;;;;;;6184237;23;20005;-82
2022/09/19 00:42:04;;;;;;;4.90;3.10;;;18.70;79.60;;;;;;6184587;23;20446;-82
2022/09/19 00:44:29;;;;;;;4.10;3.10;;;18.80;79.60;;;;;;6183733;23;20449;-81
2022/09/19 00:46:59;;;;;;;4.82;3.45;;;18.70;79.60;;;;;;6184604;23;19993;-82
2022/09/19 00:49:27;;;;;;;3.38;3.05;;;18.70;79.70;;;;;;6183052;23;20443;-82
2022/09/19 00:52:02;;;;;;;4.13;2.95;;;18.70;79.80;;;;;;6183320;23;20368;-82
2022/09/19 00:54:33;;;;;;;4.18;3.42;;;18.70;79.80;;;;;;6184180;23;20005;-81
2022/09/19 00:57:02;;;;;;;4.40;3.35;;;18.70;80.00;;;;;;6184889;23;20065;-82
2022/09/19 00:59:33;;;;;;;5.22;3.50;;;18.70;80.00;;;;;;6184555;23;20001;-82
2022/09/19 01:02:02;;;;;;;3.88;3.20;;;18.70;80.10;;;;;;6184532;23;20005;-83
2022/09/19 01:04:35;;;;;;;4.22;3.25;;;18.70;80.10;;;;;;6183983;23;20293;-82
2022/09/19 01:07:11;;;;;;;3.40;3.10;;;18.70;80.30;;;;;;6184767;23;20331;-82
2022/09/19 01:09:58;;;;;;;4.63;3.30;;;18.60;80.40;;;;;;6183763;23;20035;-82
2022/09/19 01:12:57;;;;;;;3.28;2.90;;;18.60;80.40;;;;;;6183738;23;20051;-83
2022/09/19 01:15:28;;;;;;;3.80;3.03;;;18.60;80.50;;;;;;6183746;23;20108;-84
2022/09/19 01:18:04;;;;;;;4.97;3.40;;;18.60;80.60;;;;;;6182324;23;20088;-84
2022/09/19 01:20:48;;;;;;;4.03;3.10;;;18.50;80.60;;;;;;6184034;23;20081;-82
2022/09/19 01:23:17;;;;;;;6.32;4.93;;;18.50;80.80;;;;;;6185007;23;20068;-82
2022/09/19 01:25:51;;;;;;;4.35;3.45;;;18.40;80.90;;;;;;6185921;23;20001;-83
2022/09/19 01:28:20;;;;;;;5.93;3.35;;;18.20;81.40;;;;;;6186934;23;20075;-82
2022/09/19 01:31:16;;;;;;;4.97;3.22;;;18.20;81.30;;;;;;6186652;23;20024;-82
2022/09/19 01:33:40;;;;;;;7.18;6.00;;;18.20;81.50;;;;;;6186396;23;20514;-82
2022/09/19 01:36:09;;;;;;;5.07;4.57;;;18.00;82.40;;;;;;6160034;23;20057;-82
2022/09/19 01:38:39;;;;;;;6.20;4.97;;;17.80;82.70;;;;;;6186281;23;20001;-82
2022/09/19 01:41:09;;;;;;;4.15;3.65;;;17.80;82.90;;;;;;6186697;23;20008;-82
2022/09/19 01:43:35;;;;;;;7.45;3.78;;;17.80;82.50;;;;;;6185715;23;20008;-82
2022/09/19 01:46:11;;;;;;;5.72;4.07;;;17.80;82.50;;;;;;6185491;23;20088;-82
2022/09/19 01:48:48;;;;;;;5.32;3.88;;;17.80;82.50;;;;;;6185122;23;20059;-83
2022/09/19 01:51:33;;;;;;;4.07;3.50;;;17.80;82.70;;;;;;6185803;23;20005;-84
2022/09/19 01:54:07;;;;;;;3.50;3.05;;;17.80;82.60;;;;;;6186254;23;19997;-84
2022/09/19 01:56:42;;;;;;;4.88;4.07;;;17.80;82.60;;;;;;6186291;23;20008;-82
2022/09/19 01:59:24;;;;;;;4.40;3.03;;;17.80;82.90;;;;;;6185846;23;20024;-82
2022/09/19 02:02:07;;;;;;;4.22;3.40;;;17.80;83.10;;;;;;6186610;23;20094;-82
2022/09/19 02:04:49;;;;;;;8.10;4.50;;;17.80;83.30;;;;;;6160102;23;20059;-83
2022/09/19 02:08:03;;;;;;;5.53;3.88;;;17.70;83.40;;;;;;6186298;23;20418;-83
2022/09/19 02:10:37;;;;;;;4.72;3.78;;;17.60;83.90;;;;;;6134140;23;20001;-82
2022/09/19 02:13:05;;;;;;;3.38;3.08;;;17.60;83.80;;;;;;6186479;23;20716;-82
2022/09/19 02:15:34;;;;;;;6.15;3.17;;;17.50;84.10;;;;;;6186255;23;20404;-81
2022/09/19 02:18:13;;;;;;;4.78;3.20;;;17.50;83.70;;;;;;6184768;23;20009;-81
2022/09/19 02:20:42;;;;;;;4.65;4.15;;;17.50;83.60;;;;;;6186257;23;20013;-81
2022/09/19 02:23:28;;;;;;;3.80;3.47;;;17.60;83.80;;;;;;6185818;23;20005;-81
2022/09/19 02:25:55;;;;;;;3.95;3.20;;;17.60;84.10;;;;;;6186456;23;20001;-81
2022/09/19 02:28:30;;;;;;;7.80;5.03;;;17.40;84.40;;;;;;6185500;23;20004;-82
2022/09/19 02:30:57;;;;;;;4.72;3.90;;;17.30;85.10;;;;;;6183793;23;20036;-82
2022/09/19 02:33:23;;;;;;;3.60;3.25;;;17.30;84.40;;;;;;6184553;23;20028;-82
2022/09/19 02:36:16;;;;;;;5.90;4.32;;;17.30;84.50;;;;;;6185833;23;20439;-81
2022/09/19 02:39:01;;;;;;;5.38;4.15;;;17.30;84.60;;;;;;6185853;23;20059;-82
2022/09/19 02:41:43;;;;;;;5.18;3.55;;;17.30;84.80;;;;;;6185064;23;20381;-81
2022/09/19 02:44:37;;;;;;;5.75;3.92;;;17.30;85.00;;;;;;6186364;23;20008;-81
2022/09/19 02:47:08;;;;;;;6.47;4.03;;;17.20;85.00;;;;;;6178883;23;20001;-81
2022/09/19 02:49:38;;;;;;;5.05;4.10;;;17.20;85.30;;;;;;6185036;23;20005;-80
2022/09/19 02:52:31;;;;;;;4.88;3.92;;;17.20;85.10;;;;;;6185122;23;20001;-81
2022/09/19 02:55:13;;;;;;;7.10;4.50;;;17.20;85.30;;;;;;6150995;23;20016;-81
2022/09/19 02:57:53;;;;;;;4.70;3.55;;;17.10;85.40;;;;;;6185748;23;20001;-81
2022/09/19 03:00:21;;;;;;;8.30;4.30;;;17.10;85.10;;;;;;6182959;23;20136;-83
2022/09/19 03:04:11;;;;;;;4.78;3.72;;;17.20;85.30;;;;;;6185927;23;20331;-81
2022/09/19 03:05:58;;;;;;;3.80;3.40;;;17.20;85.20;;;;;;6185485;23;20005;-82
2022/09/19 03:08:25;;;;;;;4.20;3.10;;;17.20;85.00;;;;;;6185308;23;20008;-83
2022/09/19 03:10:56;;;;;;;3.67;3.30;;;17.10;85.30;;;;;;6158849;23;20005;-82
2022/09/19 03:13:24;;;;;;;5.60;3.78;;;17.10;85.00;;;;;;6185385;23;20346;-82
2022/09/19 03:16:02;;;;;;;3.90;3.00;;;17.10;85.00;;;;;;6158584;23;20001;-81
2022/09/19 03:18:30;;;;;;;4.40;3.28;;;17.10;85.10;;;;;;6185268;23;20450;-81
2022/09/19 03:21:01;;;;;;;3.88;3.50;;;17.20;85.00;;;;;;6158595;23;20036;-81
2022/09/19 03:23:47;;;;;;;3.40;2.97;;;17.20;84.90;;;;;;6185297;23;20472;-81
2022/09/19 03:26:20;;;;;;;5.07;3.33;;;17.20;84.80;;;;;;6184201;23;20019;-81
2022/09/19 03:28:47;;;;;;;3.58;3.25;;;17.20;84.80;;;;;;6185070;23;20373;-81
2022/09/19 03:31:13;;;;;;;3.55;3.08;;;17.20;84.80;;;;;;6185103;23;20001;-82
2022/09/19 03:33:39;;;;;;;5.60;3.90;;;17.20;84.70;;;;;;6158822;23;20323;-81
2022/09/19 03:36:08;;;;;;;3.22;2.80;;;17.20;84.80;;;;;;6185656;23;20024;-81
2022/09/19 03:38:36;;;;;;;3.43;2.67;;;17.10;84.70;;;;;;6184824;23;20033;-82
2022/09/19 03:41:02;;;;;;;4.50;3.80;;;17.10;84.70;;;;;;6185559;23;20224;-82
2022/09/19 03:43:29;;;;;;;5.10;3.70;;;17.10;84.90;;;;;;6185622;23;20028;-83
2022/09/19 03:45:56;;;;;;;5.32;3.63;;;17.10;85.00;;;;;;6185543;23;20408;-82
2022/09/19 03:48:22;;;;;;;4.45;3.38;;;17.10;84.80;;;;;;6182940;23;20005;-83
2022/09/19 03:50:48;;;;;;;4.97;3.58;;;17.10;84.90;;;;;;6185008;23;20004;-82
2022/09/19 03:53:15;;;;;;;4.00;3.60;;;17.10;85.00;;;;;;6185318;23;20005;-82
2022/09/19 03:55:41;;;;;;;3.63;3.15;;;17.10;85.00;;;;;;6185059;23;20004;-83
2022/09/19 03:58:09;;;;;;;4.95;4.32;;;17.00;84.80;;;;;;6184406;23;20486;-82
2022/09/19 04:00:35;;;;;;;6.47;5.10;;;17.00;85.30;;;;;;6184393;23;20001;-82
2022/09/19 04:03:01;;;;;;;4.07;3.30;;;16.80;85.60;;;;;;6184594;23;20028;-82
2022/09/19 04:05:26;;;;;;;4.70;3.50;;;16.80;85.40;;;;;;6185131;23;20028;-82
2022/09/19 04:07:52;;;;;;;4.30;3.35;;;16.80;85.50;;;;;;6184135;23;20315;-82
2022/09/19 04:10:17;;;;;;;5.18;3.50;;;16.90;85.60;;;;;;6184400;23;20011;-83
2022/09/19 04:12:43;;;;;;;3.63;3.30;;;16.90;85.50;;;;;;6184500;23;20092;-83
2022/09/19 04:15:09;;;;;;;3.78;3.17;;;16.90;85.40;;;;;;6185171;23;20008;-82
2022/09/19 04:17:35;;;;;;;5.57;3.55;;;16.90;85.30;;;;;;6158466;23;20023;-83
2022/09/19 04:20:01;;;;;;;4.38;3.47;;;16.90;85.20;;;;;;6184300;23;20066;-83
2022/09/19 04:22:26;;;;;;;6.25;4.72;;;16.90;85.40;;;;;;6184363;23;20083;-81
2022/09/19 04:24:52;;;;;;;4.38;3.63;;;16.90;85.40;;;;;;6185664;23;20083;-82
2022/09/19 04:27:19;;;;;;;4.30;3.28;;;16.90;85.20;;;;;;6185247;23;20005;-83
2022/09/19 04:29:44;;;;;;;5.47;3.53;;;16.90;85.20;;;;;;6183704;23;20012;-82
2022/09/19 04:32:10;;;;;;;4.03;3.20;;;16.90;85.30;;;;;;6184762;23;20335;-83
2022/09/19 04:34:36;;;;;;;4.65;3.05;;;16.90;85.20;;;;;;6184271;23;20005;-82
2022/09/19 04:37:06;;;;;;;3.28;2.72;;;16.90;85.20;;;;;;6184707;23;20005;-81
2022/09/19 04:39:32;;;;;;;;;;;16.90;85.20;;;;;;6184413;23;20001;-81
2022/09/19 04:42:00;;;;;;;3.28;2.97;;;16.90;85.50;;;;;;6184614;23;19905;-81
2022/09/19 04:44:27;;;;;;;5.20;4.07;;;16.90;85.40;;;;;;6156091;23;20388;-82
2022/09/19 04:46:53;;;;;;;6.15;3.10;;;16.90;85.50;;;;;;6181870;23;20035;-81
2022/09/19 04:49:19;;;;;;;8.27;4.93;;;16.90;85.40;;;;;;6178892;23;20001;-82
2022/09/19 04:51:45;;;;;;;7.00;4.00;;;16.80;85.80;;;;;;6156407;23;20012;-82
2022/09/19 04:54:14;;;;;;;4.30;3.65;;;16.70;85.90;;;;;;6182929;23;20005;-82
2022/09/19 04:56:44;;;;;;;3.50;3.13;;;16.70;85.70;;;;;;6181830;23;20066;-83
2022/09/19 04:59:10;;;;;;;4.10;3.63;;;16.70;85.70;;;;;;6183118;23;20401;-81
2022/09/19 05:01:36;;;;;;;5.55;4.18;;;16.80;85.80;;;;;;6183508;23;20036;-82
2022/09/19 05:04:04;;;;;;;7.78;4.10;;;16.80;85.80;;;;;;6157806;23;20093;-81
2022/09/19 05:06:30;;;;;;;5.85;4.18;;;16.80;86.10;;;;;;6184152;23;20005;-82
2022/09/19 05:08:58;;;;;;;5.57;3.05;;;16.80;86.40;;;;;;6184318;23;20001;-82
2022/09/19 05:11:24;;;;;;;7.03;3.13;;;16.80;85.60;;;;;;6184543;23;20002;-82
2022/09/19 05:13:52;;;;;;;7.05;3.72;;;16.80;85.50;;;;;;6184159;23;20413;-82
2022/09/19 05:16:19;;;;;;;5.28;4.78;;;16.80;85.50;;;;;;6183613;23;20001;-74
2022/09/19 05:18:45;;;;;;;4.82;3.33;;;16.70;85.70;;;;;;6182943;23;20008;-74
2022/09/19 05:21:14;;;;;;;6.90;4.88;;;16.70;85.50;;;;;;6182766;23;20008;-74
2022/09/19 05:23:40;;;;;;;4.68;3.58;;;16.60;85.70;;;;;;6184363;23;19997;-75
2022/09/19 05:26:09;;;;;;;4.25;3.67;;;16.60;85.50;;;;;;6183533;23;20076;-73
2022/09/19 05:28:36;;;;;;;7.47;5.38;;;16.70;85.70;;;;;;6184618;23;20001;-73
2022/09/19 05:31:06;;;;;;;7.88;4.65;;;16.60;85.50;;;;;;6183895;23;19997;-73
2022/09/19 05:33:33;;;;;;;5.45;4.28;;;16.50;85.90;;;;;;6184294;23;20005;-73
2022/09/19 05:36:02;;;;;;;6.57;4.55;;;16.50;85.90;;;;;;6155300;23;20040;-80
2022/09/19 05:38:30;;;;;;;3.60;3.30;;;16.40;86.30;;;;;;6180885;23;20428;-75
2022/09/19 05:40:58;;;;;;;5.85;3.38;;;16.40;86.00;;;;;;6182852;23;20051;-73
2022/09/19 05:43:24;;;;;;;4.18;3.22;;;16.40;86.20;;;;;;6184056;23;20489;-72
2022/09/19 05:45:52;;;;;;;4.72;3.33;;;16.50;85.90;;;;;;6183831;23;19997;-73
2022/09/19 05:48:18;;;;;;;4.72;3.53;;;16.50;85.70;;;;;;6183355;23;20060;-73
2022/09/19 05:50:44;;;;;;;3.75;3.17;;;16.60;85.60;;;;;;6182052;23;20029;-73
2022/09/19 05:55:55;;;;;;;3.80;2.63;;;16.70;85.40;;;;;;6184293;23;20020;-73
2022/09/19 05:58:21;;;;;;;8.27;3.80;;;16.70;85.00;;;;;;6183707;23;20005;-73
2022/09/19 06:00:47;;;;;;;4.93;2.83;;;16.70;84.80;;;;;;6183793;23;20001;-73
2022/09/19 06:03:17;;;;;;;3.55;3.05;;;16.70;85.00;;;;;;6181425;23;20005;-73
2022/09/19 06:05:45;;;;;;;;;;;16.80;84.90;;;;;;6182749;23;20043;-73
2022/09/19 06:08:11;;;;;;;4.43;2.90;;;16.80;85.90;;;;;;6182265;23;19954;-72
2022/09/19 06:10:40;;;;;;;4.30;2.90;;;17.00;85.30;;;;;;6185725;23;20311;-73
2022/09/19 06:13:07;;;;;;;2.65;2.45;;;17.10;84.80;;;;;;6185581;23;20016;-73
2022/09/19 06:15:35;;;;;;;3.10;2.60;;;17.10;84.50;;;;;;6184567;23;20005;-79
2022/09/19 06:18:01;;;;;;;2.78;2.25;;;17.20;84.30;;;;;;6184309;23;20005;-79
2022/09/19 06:20:27;;;;;;;4.60;2.47;;;17.20;84.20;;;;;;6185657;23;20005;-79
2022/09/19 06:23:02;;;;;;;3.63;2.92;;;17.30;84.10;;;;;;6185699;23;20001;-74
2022/09/19 06:25:31;;;;;;;3.42;2.47;;;17.30;83.80;;;;;;6186249;23;20635;-73
2022/09/19 06:27:59;;;;;;;2.75;2.40;;;17.30;83.50;;;;;;6186388;23;20008;-73
2022/09/19 06:30:26;;;;;;;4.38;2.40;;;17.40;83.30;;;;;;6185839;23;20040;-72
2022/09/19 06:32:52;;;;;;;4.30;2.40;;;17.40;83.10;;;;;;6186227;23;20011;-73
2022/09/19 06:35:20;;;;;;;4.20;2.58;;;17.40;83.20;;;;;;6186184;23;20001;-73
2022/09/19 06:37:46;;;;;;;3.53;2.80;;;17.40;83.10;;;;;;6185981;23;20028;-73
2022/09/19 06:40:11;;;;;;;2.90;2.40;;;17.50;83.30;;;;;;6185344;23;20005;-73
2022/09/19 06:42:37;;;;;;;4.53;3.40;;;17.60;83.30;;;;;;6185883;23;20012;-73
2022/09/19 06:45:06;;;;;;;6.88;3.15;;;17.60;83.00;;;;;;6185979;23;20001;-73
2022/09/19 06:47:32;;;;;;;6.00;2.67;;;17.60;82.80;;;;;;6185891;23;20001;-72
2022/09/19 06:50:00;;;;;;;4.55;2.78;;;17.60;82.90;;;;;;6185948;23;20474;-74
2022/09/19 06:52:26;;;;;;;2.40;2.15;;;17.60;82.80;;;;;;6185255;23;20088;-73
2022/09/19 06:54:53;;;;;;;6.18;2.72;;;17.70;82.80;;;;;;6184452;23;20035;-73
2022/09/19 06:57:18;;;;;;;2.85;2.58;;;17.70;82.90;;;;;;6182499;23;20001;-74
2022/09/19 06:59:44;;;;;;;4.80;3.30;;;17.70;83.10;;;;;;6185739;23;20012;-73
2022/09/19 07:02:10;;;;;;;4.75;2.78;;;17.90;83.40;;;;;;6184784;23;20013;-75
2022/09/19 07:04:36;;;;;;;3.13;2.40;;;17.80;82.90;;;;;;6185319;23;20040;-74
2022/09/19 07:07:02;;;;;;;2.22;2.03;;;17.90;83.00;;;;;;6184730;23;20027;-74
2022/09/19 07:09:28;;;;;;;3.85;2.58;;;17.90;83.20;;;;;;6184006;23;20005;-74
2022/09/19 07:11:56;;;;;;;3.15;2.53;;;18.00;83.00;;;;;;6184476;23;20015;-73
2022/09/19 07:14:25;;;;;;;3.45;2.10;;;18.00;82.90;;;;;;6183960;23;20023;-74
2022/09/19 07:16:51;;;;;;;2.80;2.00;;;18.10;82.80;;;;;;6185638;23;20648;-74
2022/09/19 07:19:17;;;;;;;3.25;2.40;;;18.20;82.70;;;;;;6186105;23;20060;-80
2022/09/19 07:21:44;;;;;;;2.38;2.10;;;18.30;82.80;;;;;;6185560;23;20055;-80
2022/09/19 07:24:10;;;;;;;3.35;1.90;;;18.30;82.60;;;;;;6186112;23;20311;-80
2022/09/19 07:26:35;;;;;;;4.07;2.35;;;18.40;82.60;;;;;;6185869;23;20080;-80
2022/09/19 07:29:01;;;;;;;3.45;2.70;;;18.50;82.40;;;;;;6184734;23;20028;-80
2022/09/19 07:31:27;;;;;;;3.45;2.30;;;18.50;82.30;;;;;;6185792;23;19997;-80
2022/09/19 07:33:53;;;;;;;2.80;2.40;;;18.60;82.30;;;;;;6185859;23;20459;-80
2022/09/19 07:36:21;;;;;;;2.63;2.13;;;18.60;81.60;;;;;;6159451;23;20032;-80
2022/09/19 07:38:48;;;;;;;3.45;2.15;;;18.70;81.70;;;;;;6185143;23;19997;-80
2022/09/19 07:41:15;;;;;;;2.60;1.85;;;18.80;81.70;;;;;;6185701;23;20076;-80
2022/09/19 07:43:41;;;;;;;2.70;1.95;;;18.80;81.30;;;;;;6185682;23;20004;-80
2022/09/19 07:46:06;;;;;;;2.63;2.17;;;18.90;81.50;;;;;;6185374;23;20059;-81
2022/09/19 07:48:32;;;;;;;3.78;2.10;;;19.00;81.00;;;;;;6155212;23;20083;-80
2022/09/19 07:50:58;;;;;;;6.32;1.88;;;19.00;80.60;;;;;;6182634;23;20004;-80
2022/09/19 07:53:24;;;;;;;3.50;1.92;;;19.10;80.70;;;;;;6184976;23;20012;-80
2022/09/19 07:55:54;;;;;;;2.10;1.65;;;19.20;80.60;;;;;;6182017;23;20040;-80
2022/09/19 07:58:21;;;;;;;3.22;2.13;;;19.30;80.20;;;;;;6183109;23;20009;-80
2022/09/19 08:00:48;;;;;;;1.92;1.35;;;19.40;79.90;;;;;;6184949;23;20028;-80
2022/09/19 08:03:15;;;;;;;1.90;1.20;;;19.60;79.90;;;;;;6184625;23;20001;-80
2022/09/19 08:05:45;;;;;;;4.10;2.25;;;19.70;79.80;;;;;;6185430;23;20059;-80
2022/09/19 08:08:13;;;;;;;3.05;1.42;;;19.90;79.80;;;;;;6182831;23;20063;-80
2022/09/19 08:10:42;;;;;;;1.88;1.35;;;20.00;79.60;;;;;;6184427;23;20011;-81
2022/09/19 08:13:10;;;;;;;1.92;1.15;;;20.10;78.90;;;;;;6184973;23;20020;-81
2022/09/19 08:15:36;;;;;;;4.95;0.90;;;20.20;78.20;;;;;;6185322;23;20088;-80
2022/09/19 08:18:09;;;;;;;1.77;1.00;;;20.30;77.60;;;;;;6184454;23;20048;-80
2022/09/19 08:20:39;;;;;;;2.72;0.77;;;20.40;76.80;;;;;;6182943;23;20005;-80
2022/09/19 08:23:11;;;;;;;1.30;0.80;;;20.50;76.50;;;;;;6184442;23;20029;-81
2022/09/19 08:25:38;;;;;;;2.15;1.00;;;20.60;76.20;;;;;;6185024;23;19997;-80
2022/09/19 08:28:05;;;;;;;3.53;0.75;;;20.70;75.30;;;;;;6184707;23;20005;-80
2022/09/19 08:30:35;;;;;;;1.60;0.90;;;20.90;75.10;;;;;;6184926;23;20495;-81
2022/09/19 08:33:02;;;;;;;2.13;0.98;;;21.00;74.60;;;;;;6184819;23;20001;-80
2022/09/19 08:35:30;;;;;;;1.63;1.00;;;21.10;74.20;;;;;;6184882;23;20012;-80
2022/09/19 08:37:58;;;;;;;1.52;0.73;;;21.20;74.10;;;;;;6184599;23;20446;-81
2022/09/19 08:40:44;;;;;;;2.92;1.00;;;21.30;73.80;;;;;;6184929;23;20027;-80
2022/09/19 08:43:40;;;;;;;2.92;0.80;;;21.40;73.20;;;;;;6158802;23;20005;-80
2022/09/19 08:46:13;;;;;;;0.93;0.80;;;21.40;72.70;;;;;;6185351;23;20021;-80
2022/09/19 08:48:58;;;;;;;1.40;0.88;;;21.50;72.50;;;;;;6184662;23;19997;-81
2022/09/19 08:51:53;;;;;;;1.42;0.80;;;21.60;72.10;;;;;;6184576;23;20001;-80
2022/09/19 08:54:46;;;;;;;1.10;0.55;;;21.70;71.30;;;;;;6161419;23;20455;-80
2022/09/19 08:57:28;;;;;;;2.47;0.95;;;21.70;70.00;;;;;;6182656;23;20001;-80
2022/09/19 08:59:59;;;;;;;0.80;0.73;;;21.70;70.00;;;;;;6184676;23;20004;-80
2022/09/19 09:02:46;;;;;;;1.75;0.80;;;21.80;70.30;;;;;;6184359;23;20132;-80
2022/09/19 09:05:19;;;;;;;1.02;0.80;;;21.80;70.30;;;;;;6183520;23;20005;-80
2022/09/19 09:08:18;;;;;;;0.93;0.70;;;21.90;70.20;;;;;;6184951;23;20007;-81
2022/09/19 09:11:14;;;;;;;1.92;0.82;;;22.10;70.20;;;;;;6184288;23;20001;-81
2022/09/19 09:13:55;;;;;;;2.28;0.73;;;22.20;70.20;;;;;;6153057;23;20028;-81
2022/09/19 09:16:29;;;;;;;1.25;0.70;;;22.40;70.30;;;;;;6184632;23;20005;-80
2022/09/19 09:19:17;;;;;;;1.13;0.68;;;22.60;70.00;;;;;;6184670;23;20124;-81
2022/09/19 09:21:59;;;;;;;1.13;0.82;;;22.80;69.70;;;;;;6183946;23;20012;-81
2022/09/19 09:24:43;;;;;;;2.22;0.70;;;22.90;68.50;;;;;;6184822;23;20005;-81
2022/09/19 09:27:22;;;;;;;1.98;1.10;;;23.10;67.10;;;;;;6184935;23;20427;-80
2022/09/19 09:29:53;;;;;;;1.67;0.80;;;23.20;66.60;;;;;;6184767;23;19997;-80
2022/09/19 09:32:36;;;;;;;3.00;0.82;;;23.20;65.90;;;;;;6181941;23;20016;-80
2022/09/19 09:35:34;;;;;;;0.93;0.55;;;23.20;64.20;;;;;;6151987;23;20088;-81
2022/09/19 09:38:26;;;;;;;1.17;0.70;;;23.40;64.90;;;;;;6171265;23;20005;-81
2022/09/19 09:44:15;;;;;;;1.05;0.70;;;23.60;64.00;;;;;;6182403;23;20016;-80
2022/09/19 09:46:50;;;;;;;3.60;0.95;;;23.70;63.60;;;;;;6186128;23;20104;-81
2022/09/19 09:49:17;;;;;;;1.05;0.70;;;23.90;63.50;;;;;;6185297;23;20001;-74
2022/09/19 09:52:03;;;;;;;0.75;0.57;;;24.10;63.40;;;;;;6183235;23;20387;-74
2022/09/19 09:57:43;;;;;;;1.00;0.70;;;24.40;62.50;;;;;;6105685;23;20460;-74
2022/09/19 10:03:40;;;;;;;1.45;0.80;;;24.80;60.00;;;;;;6183284;23;20104;-74
2022/09/19 10:06:15;;;;;;;2.30;0.77;;;24.70;58.00;;;;;;6129743;23;20001;-74
2022/09/19 10:08:43;;;;;;;1.52;0.70;;;24.70;59.20;;;;;;6182846;23;20060;-75
2022/09/19 10:11:12;;;;;;;2.65;1.02;;;24.70;59.70;;;;;;6183353;23;20024;-75
2022/09/19 10:14:01;;;;;;;9.55;1.48;;;24.90;59.80;;;;;;6180332;23;20025;-81
2022/09/19 10:16:32;;;;;;;5.43;1.17;;;25.10;59.60;;;;;;6179292;23;20016;-82
2022/09/19 10:19:12;;;;;;;1.35;0.70;;;25.30;58.60;;;;;;6181688;23;20387;-81
2022/09/19 10:21:38;;;;;;;5.93;1.00;;;25.40;57.80;;;;;;6181923;23;20008;-75
2022/09/19 10:24:43;;;;;;;1.10;0.70;;;25.40;58.10;;;;;;6181861;23;20012;-77
2022/09/19 10:27:21;;;;;;;1.15;0.80;;;25.60;57.80;;;;;;6184727;23;20282;-76
2022/09/19 10:29:56;;;;;;;1.58;0.80;;;25.80;58.40;;;;;;6180740;23;20376;-73
2022/09/19 10:32:24;;;;;;;1.35;1.10;;;26.00;58.60;;;;;;6180876;23;20009;-73
2022/09/19 10:34:51;;;;;;;1.63;1.10;;;26.20;58.50;;;;;;6181435;23;20009;-73
2022/09/19 10:37:19;;;;;;;1.52;1.10;;;26.40;58.40;;;;;;6185165;23;20001;-73
2022/09/19 10:39:48;;;;;;;4.40;1.42;;;26.50;57.70;;;;;;6184692;23;20008;-73
2022/09/19 10:42:35;;;;;;;1.95;1.40;;;26.60;56.70;;;;;;6184626;23;20001;-73
2022/09/19 10:45:25;;;;;;;2.47;1.35;;;26.70;56.10;;;;;;6185219;23;20025;-76
2022/09/19 10:48:00;;;;;;;2.05;1.20;;;26.80;56.40;;;;;;6183109;23;20379;-76
2022/09/19 10:50:27;;;;;;;1.80;1.23;;;27.00;56.40;;;;;;6184529;23;20076;-76
2022/09/19 10:53:01;;;;;;;1.55;1.25;;;27.20;55.50;;;;;;6184468;23;20008;-76
2022/09/19 10:55:27;;;;;;;2.97;1.27;;;27.30;55.10;;;;;;6184943;23;20012;-76
2022/09/19 10:58:00;;;;;;;2.13;1.45;;;27.40;54.90;;;;;;6158937;23;20147;-76
2022/09/19 11:00:27;;;;;;;2.13;1.30;;;27.50;55.00;;;;;;6183804;23;20001;-76
2022/09/19 11:03:02;;;;;;;3.83;2.20;;;27.60;55.30;;;;;;6182472;23;20008;-76
2022/09/19 11:05:31;;;;;;;3.20;1.65;;;27.70;54.40;;;;;;6182818;23;20103;-76
2022/09/19 11:07:59;;;;;;;2.88;2.20;;;27.90;54.80;;;;;;6183933;23;20023;-76
2022/09/19 11:10:40;;;;;;;3.55;1.92;;;28.00;54.80;;;;;;6183305;23;20497;-76
2022/09/19 11:13:09;;;;;;;2.83;1.85;;;28.10;53.50;;;;;;6183651;23;20387;-76
2022/09/19 11:15:53;;;;;;;3.42;2.28;;;28.30;53.90;;;;;;6183295;23;20012;-76
2022/09/19 11:18:48;;;;;;;7.65;2.10;;;28.50;53.80;;;;;;6157716;23;20009;-76
2022/09/19 11:21:46;;;;;;;3.72;1.40;;;28.60;52.10;;;;;;6184358;23;20001;-77
2022/09/19 11:24:40;;;;;;;3.40;1.80;;;28.60;50.80;;;;;;6153863;23;20440;-76
2022/09/19 11:27:09;;;;;;;4.85;1.95;;;28.70;50.70;;;;;;6184095;23;20001;-77
2022/09/19 11:29:35;;;;;;;3.50;1.50;;;28.80;50.90;;;;;;6184735;23;20001;-76
2022/09/19 11:32:24;;;;;;;2.28;1.33;;;29.00;51.70;;;;;;6180975;23;20016;-77
2022/09/19 11:35:07;;;;;;;3.80;2.10;;;29.20;51.20;;;;;;6183859;23;20008;-76
2022/09/19 11:37:45;;;;;;;7.22;2.30;;;29.40;51.50;;;;;;6183946;23;20028;-76
2022/09/19 11:41:05;;;;;;;8.05;2.30;;;29.50;51.00;;;;;;6181999;23;20012;-83
2022/09/19 11:44:00;;;;;;;4.20;2.03;;;29.70;50.30;;;;;;6184624;23;20305;-83
2022/09/19 11:46:55;;;;;;;2.55;1.52;;;29.80;50.40;;;;;;6127630;23;20084;-82
2022/09/19 11:49:39;;;;;;;4.05;2.15;;;29.80;48.90;;;;;;6182080;23;20063;-83
2022/09/19 11:52:38;;;;;;;3.30;2.00;;;29.90;48.40;;;;;;6182814;23;20015;-83
2022/09/19 11:55:09;;;;;;;3.53;1.85;;;30.20;48.20;;;;;;6180581;23;20473;-83
2022/09/19 11:58:03;;;;;;;3.17;1.65;;;30.40;46.60;;;;;;6181580;23;20307;-81
2022/09/19 12:00:57;;;;;;;2.75;1.83;;;30.50;46.70;;;;;;6171937;23;20032;-80
2022/09/19 12:03:52;;;;;;;4.85;2.30;;;30.60;46.70;;;;;;6152395;23;20087;-80
2022/09/19 12:06:36;;;;;;;3.78;1.83;;;30.70;46.30;;;;;;6182402;23;20112;-81
2022/09/19 12:09:33;;;;;;;4.45;2.25;;;30.80;47.10;;;;;;6182323;23;20332;-80
2022/09/19 12:12:13;;;;;;;4.47;2.92;;;30.90;46.40;;;;;;6105869;23;20012;-81
2022/09/19 12:14:44;;;;;;;4.00;2.50;;;31.00;46.50;;;;;;6179365;23;20435;-80
2022/09/19 12:17:28;;;;;;;3.15;2.40;;;31.00;46.30;;;;;;6180010;23;20451;-81
2022/09/19 12:20:43;;;;;;;2.45;1.65;;;31.10;45.00;;;;;;6178964;23;20009;-76
2022/09/19 12:26:12;;;;;;;4.30;1.65;;;31.40;45.00;;;;;;6178654;23;20587;-77
2022/09/19 12:28:47;;;;;;;6.22;1.63;;;31.50;45.00;;;;;;6180394;23;20004;-75
2022/09/19 12:31:18;;;;;;;2.95;1.67;;;31.60;42.90;;;;;;6179044;23;20008;-77
2022/09/19 12:34:11;;;;;;;4.53;1.70;;;31.60;43.60;;;;;;6180496;23;20717;-77
2022/09/19 12:36:50;;;;;;;5.22;2.10;;;31.70;43.00;;;;;;6181461;23;20077;-81
2022/09/19 12:39:19;;;;;;;;;;;31.70;43.30;;;;;;6179971;23;20104;-83
2022/09/19 12:42:00;;;;;;;2.33;2.00;;;31.70;43.10;;;;;;6155375;23;20369;-82
2022/09/19 12:44:58;;;;;;;3.45;1.70;;;31.70;43.30;;;;;;6180250;23;19998;-82
2022/09/19 12:47:50;;;;;;;2.20;1.55;;;31.70;42.40;;;;;;6180939;23;19997;-82
2022/09/19 12:50:41;;;;;;;5.38;3.53;;;31.70;42.00;;;;;;6182084;23;20094;-85
2022/09/19 12:53:09;;;;;;;21.30;16.58;;;31.60;40.10;;;;;;6182247;23;20032;-85
2022/09/19 12:56:04;;;;;;;5.47;3.40;;;31.50;41.20;;;;;;6181894;23;20012;-83
2022/09/19 12:59:15;;;;;;;2.17;1.80;;;31.40;40.40;;;;;;6181182;23;20483;-84
2022/09/19 13:01:52;;;;;;;1.70;1.20;;;31.20;40.90;;;;;;6135780;23;20375;-84
2022/09/19 13:04:28;;;;;;;2.03;1.40;;;31.00;41.00;;;;;;6179366;23;20016;-85
2022/09/19 13:07:07;;;;;;;2.25;1.45;;;30.90;40.90;;;;;;6180877;23;20005;-83
2022/09/19 13:09:54;;;;;;;2.42;1.77;;;30.50;41.70;;;;;;6180086;23;20332;-79
2022/09/19 13:12:39;;;;;;;2.08;1.40;;;30.00;41.60;;;;;;6180912;23;20040;-78
2022/09/19 13:15:38;;;;;;;1.42;1.15;;;29.60;41.90;;;;;;6180540;23;20029;-78
2022/09/19 13:23:45;;;;;;;1.38;1.20;;;28.40;43.30;;;;;;6182319;23;20040;-78
2022/09/19 13:26:17;;;;;;;1.77;1.02;;;28.10;43.20;;;;;;6182215;23;20083;-78
2022/09/19 13:28:50;;;;;;;1.67;1.13;;;27.80;43.60;;;;;;6181485;23;20005;-83
2022/09/19 13:31:17;;;;;;;1.00;0.85;;;27.60;43.80;;;;;;6182206;23;20011;-83
2022/09/19 13:33:57;;;;;;;1.83;1.00;;;27.40;44.40;;;;;;6181415;23;20443;-83
2022/09/19 13:36:26;;;;;;;2.42;1.20;;;27.30;44.70;;;;;;6181933;23;20005;-83
2022/09/19 13:39:01;;;;;;;1.40;0.98;;;27.20;43.60;;;;;;6182671;23;20032;-83
2022/09/19 13:41:53;;;;;;;1.45;1.13;;;27.00;42.50;;;;;;6182969;23;20332;-83
2022/09/19 13:44:40;;;;;;;1.92;0.82;;;26.80;42.90;;;;;;6182324;23;20021;-82
2022/09/19 13:47:27;;;;;;;0.93;0.80;;;26.70;44.00;;;;;;6182421;23;20009;-82